FNUG

Uige Airport

Uige, Angola
METAR FNUG 171400Z 27006KT 9999 SCT018 BKN080 26/21 Q1014
Observed Flight Rules
Dec-17 @ 14:00 UTC (an hour ago) Visual Flight Rules
Wind Visibility Clouds
270° at 6 knots 10,000+ meters
  • Scattered at 1,800' AGL
  • Broken at 8,000' AGL
Temperatures Readings
Current 26°C / 79°F
Dewpoint 21°C / 70°F
Humidity 74%
Altimeter 29.94" Hg
Pressure 1014 hPa
Elevation 829
METAR FNUG 171400Z 27006KT 9999 SCT018 BKN080 26/21 Q1014
Observed Flight Rules
Dec-17 @ 14:00 UTC
(an hour ago)
VFR
Wind Visibility
270° at 6 knots 10,000+ meters
Clouds
  • Scattered at 1,800' AGL
  • Broken at 8,000' AGL
Temperature Dewpoint
26°C / 79°F 21°C / 70°F
Humidity Altimeter Pressure
74% 29.94" Hg 1014 hPa